Flight Track Log - Related Links

Times and Time Zones

All times are in EDT time to prevent confusion due to time zone crossing. See the CSC8506 flight status page for this flight to view local times or setup timezone preferences in your user account.

Time Position Orientation Groundspeed Altitude Reporting Facility
EDT Latitude Longitude Course Direction KTS MPH feet Rate Location/Type
Fri 11:14:00 AM 31.4929 118.1223 249° West  Level Estimated
Fri 11:15:00 AM 31.4570 118.0169 248° West  Level Estimated
Fri 11:16:00 AM 31.4210 117.9116 248° West  Level Estimated
Fri 11:17:00 AM 31.3849 117.8064 248° West  Level Estimated
Fri 11:18:00 AM 31.3487 117.7013 248° West  Level Estimated
Fri 11:19:00 AM 31.3124 117.5963 248° West  Level Estimated
Fri 11:20:00 AM 31.2760 117.4913 248° West  Level Estimated
Fri 11:21:00 AM 31.2396 117.3865 248° West  Level Estimated
Fri 11:22:00 AM 31.2030 117.2817 248° West  Level Estimated
Fri 11:23:00 AM 31.1664 117.1769 248° West  Level Estimated
Fri 11:24:00 AM 31.1297 117.0723 248° West  Level Estimated
Fri 11:25:00 AM 31.0929 116.9678 248° West  Level Estimated
Fri 11:26:00 AM 31.0560 116.8633 248° West  Level Estimated
Fri 11:27:00 AM 31.0191 116.7589 248° West  Level Estimated
Fri 11:28:00 AM 30.9820 116.6546 248° West  Level Estimated
Fri 11:29:00 AM 30.9449 116.5504 247° West  Level Estimated
Fri 11:30:00 AM 30.9077 116.4462 247° West  Level Estimated
Fri 11:31:00 AM 30.8704 116.3422 247° West  Level Estimated
Fri 11:32:00 AM 30.8330 116.2382 247° West  Level Estimated
Fri 11:33:00 AM 30.7956 116.1343 247° West  Level Estimated
Fri 11:34:00 AM 30.7581 116.0305 247° West  Level Estimated
Fri 11:35:00 AM 30.7204 115.9267 247° West  Level Estimated
Fri 11:36:00 AM 30.6827 115.8231 247° West  Level Estimated
Fri 11:37:00 AM 30.6449 115.7195 247° West  Level Estimated
Fri 11:38:00 AM 30.6071 115.6160 247° West  Level Estimated
Fri 11:39:00 AM 30.5691 115.5126 247° West  Level Estimated
Fri 11:40:00 AM 30.5311 115.4093 247° West  Level Estimated
Fri 11:41:00 AM 30.4930 115.3060 247° West  Level Estimated
Fri 11:42:00 AM 30.4548 115.2028 247° West  Level Estimated
Fri 11:43:00 AM 30.4165 115.0997 247° West  Level Estimated
Fri 11:44:00 AM 30.3781 114.9967 247° West  Level Estimated
Fri 11:45:00 AM 30.3397 114.8938 247° West  Level Estimated
Fri 11:46:00 AM 30.3012 114.7910 247° West  Level Estimated
Fri 11:47:00 AM 30.2626 114.6882 247° West  Level Estimated
Fri 11:48:00 AM 30.2239 114.5855 246° West  Level Estimated
Fri 11:49:00 AM 30.1851 114.4829 246° West  Level Estimated
Fri 11:50:00 AM 30.1463 114.3804 246° West  Level Estimated
Fri 11:51:00 AM 30.1074 114.2779 246° West  Level Estimated
Fri 11:52:00 AM 30.0684 114.1756 246° West  Level Estimated
Fri 11:53:00 AM 30.0293 114.0733 246° West  Level Estimated
Fri 11:54:00 AM 29.9901 113.9711 246° West  Level Estimated
Fri 11:55:00 AM 29.9509 113.8690 246° West  Level Estimated
Fri 11:56:00 AM 29.9116 113.7669 246° West  Level Estimated
Fri 11:57:00 AM 29.8722 113.6650 246° West  Level Estimated
Fri 11:58:00 AM 29.8327 113.5631 246° West  Level Estimated
Fri 11:59:00 AM 29.7932 113.4613 246° West  Level Estimated
Fri 12:00:00 PM 29.7535 113.3596 246° West  Level Estimated
Fri 12:01:00 PM 29.7138 113.2579 246° West  Level Estimated
Fri 12:02:00 PM 29.6740 113.1564 246° West  Level Estimated
Fri 12:03:00 PM 29.6342 113.0549 246° West  Level Estimated
Fri 12:04:00 PM 29.5942 112.9535 246° West  Level Estimated
Fri 12:05:00 PM 29.5542 112.8522 246° West  Level Estimated
Fri 12:06:00 PM 29.5141 112.7510 246° West  Level Estimated
Fri 12:07:00 PM 29.4740 112.6498 246° West  Level Estimated
Fri 12:08:00 PM 29.4337 112.5487 245° Southwest  Level Estimated
Fri 12:09:00 PM 29.3934 112.4477 245° Southwest  Level Estimated
Fri 12:10:00 PM 29.3530 112.3468 245° Southwest  Level Estimated
Fri 12:11:00 PM 29.3125 112.2460 245° Southwest  Level Estimated
Fri 12:12:00 PM 29.2720 112.1452 245° Southwest  Level Estimated
Fri 12:13:00 PM 29.2314 112.0446 245° Southwest  Level Estimated
Fri 12:14:00 PM 29.1907 111.9440 245° Southwest  Level Estimated
Fri 12:15:00 PM 29.1499 111.8435 245° Southwest  Level Estimated
Fri 12:16:00 PM 29.1090 111.7430 245° Southwest  Level Estimated
Fri 12:17:00 PM 29.0681 111.6427 245° Southwest  Level Estimated
Fri 12:18:00 PM 29.0271 111.5424 245° Southwest  Level Estimated
Fri 12:19:00 PM 28.9860 111.4422 245° Southwest  Level Estimated
Fri 12:20:00 PM 28.9449 111.3421 245° Southwest  Level Estimated
Fri 12:21:00 PM 28.9037 111.2420 245° Southwest  Level Estimated
Fri 12:22:00 PM 28.8624 111.1421 245° Southwest  Level Estimated
Fri 12:23:00 PM 28.8210 111.0422 245° Southwest  Level Estimated
Fri 12:24:00 PM 28.7796 110.9424 245° Southwest  Level Estimated
Fri 12:25:00 PM 28.7381 110.8427 245° Southwest  Level Estimated
Fri 12:26:00 PM 28.6965 110.7430 245° Southwest  Level Estimated
Fri 12:27:00 PM 28.6548 110.6435 245° Southwest  Level Estimated
Fri 12:28:00 PM 28.6131 110.5440 244° Southwest  Level Estimated
Fri 12:29:00 PM 28.5713 110.4446 244° Southwest  Level Estimated
Fri 12:30:00 PM 28.5294 110.3453 244° Southwest  Level Estimated
Fri 12:31:00 PM 28.4874 110.2460 244° Southwest  Level Estimated
Fri 12:32:00 PM 28.4454 110.1469 244° Southwest  Level Estimated
Fri 12:33:00 PM 28.4033 110.0478 244° Southwest  Level Estimated
Fri 12:34:00 PM 28.3611 109.9488 244° Southwest  Level Estimated
Fri 12:35:00 PM 28.3189 109.8499 244° Southwest  Level Estimated
Fri 12:36:00 PM 28.2766 109.7510 244° Southwest  Level Estimated
Fri 12:37:00 PM 28.2342 109.6522 244° Southwest  Level Estimated
Fri 12:38:00 PM 28.1918 109.5535 244° Southwest  Level Estimated
Fri 12:39:00 PM 28.1492 109.4549 244° Southwest  Level Estimated
Fri 12:40:00 PM 28.1066 109.3564 244° Southwest  Level Estimated
Fri 12:41:00 PM 28.0640 109.2579 244° Southwest  Level Estimated
Fri 12:42:00 PM 28.0212 109.1595 244° Southwest  Level Estimated
Fri 12:43:00 PM 27.9784 109.0612 244° Southwest  Level Estimated
Fri 12:44:00 PM 27.9356 108.9630 244° Southwest  Level Estimated
Fri 12:45:00 PM 27.8926 108.8649 244° Southwest  Level Estimated
Fri 12:46:00 PM 27.8496 108.7668 244° Southwest  Level Estimated
Fri 12:47:00 PM 27.8065 108.6688 244° Southwest  Level Estimated
Fri 12:48:00 PM 27.7634 108.5709 244° Southwest  Level Estimated
Fri 12:49:00 PM 27.7202 108.4731 243° Southwest  Level Estimated
Fri 12:50:00 PM 27.6769 108.3753 243° Southwest  Level Estimated
Fri 12:51:00 PM 27.6335 108.2776 243° Southwest  Level Estimated
Fri 12:52:00 PM 27.5901 108.1800 243° Southwest  Level Estimated
Fri 12:53:00 PM 27.5466 108.0825 243° Southwest  Level Estimated
Fri 12:54:00 PM 27.5030 107.9851 243° Southwest  Level Estimated
Fri 12:55:00 PM 27.4594 107.8877 243° Southwest  Level Estimated
Fri 12:56:00 PM 27.4157 107.7904 243° Southwest  Level Estimated
Fri 12:57:00 PM 27.3719 107.6932 243° Southwest  Level Estimated
Fri 12:58:00 PM 27.3281 107.5960 243° Southwest  Level Estimated
Fri 12:59:00 PM 27.2842 107.4990 243° Southwest  Level Estimated
Fri 01:00:00 PM 27.2402 107.4020 243° Southwest  Level Estimated
Fri 01:01:00 PM 27.1962 107.3051 243° Southwest  Level Estimated
Fri 01:02:00 PM 27.1521 107.2083 243° Southwest  Level Estimated
Fri 01:03:00 PM 27.1079 107.1115 243° Southwest  Level Estimated
Fri 01:04:00 PM 27.0637 107.0148 243° Southwest  Level Estimated
Fri 01:05:00 PM 27.0194 106.9182 243° Southwest  Level Estimated
Fri 01:06:00 PM 26.9750 106.8217 243° Southwest  Level Estimated
Fri 01:07:00 PM 26.9306 106.7252 243° Southwest  Level Estimated
Fri 01:08:00 PM 26.8861 106.6289 243° Southwest  Level Estimated
Fri 01:09:00 PM 26.8416 106.5326 243° Southwest  Level Estimated
Fri 01:10:00 PM 26.7969 106.4363 243° Southwest  Level Estimated
Fri 01:11:00 PM 26.7523 106.3402 243° Southwest  Level Estimated
Fri 01:12:00 PM 26.7075 106.2441 242° Southwest  Level Estimated
Fri 01:13:00 PM 26.6627 106.1481 242° Southwest  Level Estimated
Fri 01:14:00 PM 26.6178 106.0522 242° Southwest  Level Estimated
Fri 01:15:00 PM 26.5728 105.9564 242° Southwest  Level Estimated
Fri 01:16:00 PM 26.5278 105.8606 242° Southwest  Level Estimated
Fri 01:17:00 PM 26.4827 105.7649 242° Southwest  Level Estimated
Fri 01:18:00 PM 26.4376 105.6693 242° Southwest  Level Estimated
Fri 01:19:00 PM 26.3924 105.5737 242° Southwest  Level Estimated
Fri 01:20:00 PM 26.3471 105.4782 242° Southwest  Level Estimated
Fri 01:21:00 PM 26.3018 105.3829 242° Southwest  Level Estimated
Fri 01:22:00 PM 26.2564 105.2875 242° Southwest  Level Estimated
Fri 01:23:00 PM 26.2110 105.1923 242° Southwest  Level Estimated
Fri 01:24:00 PM 26.1654 105.0971 242° Southwest  Level Estimated
Fri 01:25:00 PM 26.1199 105.0020 242° Southwest  Level Estimated
Fri 01:26:00 PM 26.0742 104.9070 242° Southwest  Level Estimated
Fri 01:27:00 PM 26.0285 104.8120 242° Southwest  Level Estimated
Fri 01:28:00 PM 25.9827 104.7172 242° Southwest  Level Estimated
Fri 01:29:00 PM 25.9369 104.6224 242° Southwest  Level Estimated
Fri 01:30:00 PM 25.8910 104.5276 242° Southwest  Level Estimated
Fri 01:31:00 PM 25.8451 104.4330 242° Southwest  Level Estimated
Fri 01:32:00 PM 25.7990 104.3384 242° Southwest  Level Estimated
Fri 01:33:00 PM 25.7530 104.2439 242° Southwest  Level Estimated
Fri 01:34:00 PM 25.7068 104.1495 242° Southwest  Level Estimated
Fri 01:35:00 PM 25.6606 104.0551 242° Southwest  Level Estimated
Fri 01:36:00 PM 25.6144 103.9608 241° Southwest  Level Estimated
Fri 01:37:00 PM 25.5681 103.8666 241° Southwest  Level Estimated
Fri 01:38:00 PM 25.5217 103.7725 241° Southwest  Level Estimated
Fri 01:39:00 PM 25.4752 103.6784 241° Southwest  Level Estimated
Fri 01:40:00 PM 25.4287 103.5844 241° Southwest  Level Estimated
Fri 01:41:00 PM 25.3822 103.4905 241° Southwest  Level Estimated
Fri 01:42:00 PM 25.3356 103.3966 241° Southwest  Level Estimated
Fri 01:43:00 PM 25.2889 103.3028 241° Southwest  Level Estimated
Fri 01:44:00 PM 25.2421 103.2091 241° Southwest  Level Estimated
Fri 01:45:00 PM 25.1954 103.1155 241° Southwest  Level Estimated
Fri 01:46:00 PM 25.1485 103.0219 241° Southwest  Level Estimated
Fri 01:47:00 PM 25.1019 102.9292 241° Southwest  Level Estimated
Fri 01:48:00 PM 25.1019 102.9292 North  Level Estimated
Fri 01:49:00 PM 25.1019 102.9292 North  Level Estimated
Fri 01:50:00 PM 25.1019 102.9292 North  Level Estimated
Fri 01:51:00 PM 25.1019 102.9292 North  Level Estimated
Fri 01:52:00 PM 25.1019 102.9292 North  Level Estimated
Fri 01:53:00 PM 25.1019 102.9292 North  Level Estimated
Fri 01:54:00 PM 25.1019 102.9292 North  Level Estimated
Fri 01:55:00 PM 25.1019 102.9292 North  Level Estimated
Fri 01:56:00 PM 25.1019 102.9292 North  Level Estimated
Fri 01:57:00 PM 25.1019 102.9292 North  Level Estimated
Fri 01:58:00 PM 25.1019 102.9292 North  Level Estimated
Fri 01:59:00 PM 25.1019 102.9292 North  Level Estimated
Fri 02:00:00 PM 25.1019 102.9292 North  Level Estimated
Fri 02:01:00 PM 25.1019 102.9292 North  Level Estimated
Fri 02:02:00 PM 25.1019 102.9292 North  Level Estimated
Fri 02:03:00 PM 25.1019 102.9292 North  Level Estimated

Login

Don't have an account? Register now (free) for customized features, flight alerts, and more!